Time;durP1;ratioP1;P1;durP2;ratioP2;P2;SDS_P1;SDS_P2;PMS_P1;PMS_P2;Temp;Humidity;BMP_temperature;BMP_pressure;BME280_temperature;BME280_humidity;BME280_pressure;Samples;Min_cycle;Max_cycle;Signal;HPM_P1;HPM_P2
2021/12/10 00:01:11;;;;;;;;;;;3.10;18.40;;;;;;4170008;28;19981;-57
2021/12/10 00:03:16;;;;;;;;;;;3.10;19.20;;;;;;4173531;28;20084;-58
2021/12/10 00:05:19;;;;;;;;;;;3.00;18.50;;;;;;4168671;28;19982;-58
2021/12/10 00:07:22;;;;;;;;;;;3.00;18.00;;;;;;4166893;28;20068;-61
2021/12/10 00:09:44;;;;;;;;;;;2.90;17.80;;;;;;4167641;28;20350;-57
2021/12/10 00:11:51;;;;;;;;;;;2.90;13.70;;;;;;4167420;28;20478;-60
2021/12/10 00:13:53;;;;;;;;;;;2.90;14.90;;;;;;4170161;28;19997;-56
2021/12/10 00:15:56;;;;;;;;;;;3.00;16.60;;;;;;4174092;28;19981;-58
2021/12/10 00:17:59;;;;;;;;;;;3.00;16.70;;;;;;4171178;28;20182;-56
2021/12/10 00:20:03;;;;;;;;;;;3.00;15.80;;;;;;4170572;28;20068;-59
2021/12/10 00:22:09;;;;;;;;;;;3.00;11.10;;;;;;4168739;28;20068;-57
2021/12/10 00:24:16;;;;;;;;;;;2.90;11.90;;;;;;4185295;28;20423;-61
2021/12/10 00:26:22;;;;;;;;;;;2.90;12.10;;;;;;4186268;28;20079;-56
2021/12/10 00:28:34;;;;;;;;;;;2.90;13.00;;;;;;4167745;28;20406;-58
2021/12/10 00:30:44;;;;;;;;;;;2.90;13.40;;;;;;4171762;28;19977;-58
2021/12/10 00:32:48;;;;;;;;;;;2.90;13.70;;;;;;4199663;28;20008;-57
2021/12/10 00:34:51;;;;;;;;;;;2.90;13.10;;;;;;4202734;28;20019;-57
2021/12/10 00:36:55;;;;;;;;;;;2.90;13.10;;;;;;4173811;28;20076;-59
2021/12/10 00:38:59;;;;;;;;;;;2.90;12.20;;;;;;4174266;28;20470;-59
2021/12/10 00:41:01;;;;;;;;;;;2.90;11.80;;;;;;4175226;28;20467;-58
2021/12/10 00:43:03;;;;;;;;;;;2.90;11.90;;;;;;4171454;28;19990;-57
2021/12/10 00:45:07;;;;;;;;;;;2.90;11.60;;;;;;4173073;28;19981;-58
2021/12/10 00:47:09;;;;;;;;;;;2.90;11.40;;;;;;4176494;28;20447;-56
2021/12/10 00:49:11;;;;;;;;;;;2.90;11.80;;;;;;4174410;28;20454;-57
2021/12/10 00:51:14;;;;;;;;;;;2.90;11.80;;;;;;4170960;28;20479;-58
2021/12/10 00:53:16;;;;;;;;;;;2.90;11.90;;;;;;4207280;28;20047;-58
2021/12/10 00:55:19;;;;;;;;;;;2.90;11.60;;;;;;4185317;28;19981;-58
2021/12/10 00:57:20;;;;;;;;;;;3.00;10.20;;;;;;4172615;28;20427;-57
2021/12/10 00:59:22;;;;;;;;;;;3.00;8.50;;;;;;4172258;28;20374;-59
2021/12/10 01:01:26;;;;;;;;;;;3.00;7.80;;;;;;4175572;28;20013;-58
2021/12/10 01:03:30;;;;;;;;;;;2.90;7.00;;;;;;4174865;28;19989;-56
2021/12/10 01:05:33;;;;;;;;;;;2.90;6.30;;;;;;4174640;28;20080;-58
2021/12/10 01:07:35;;;;;;;;;;;2.90;5.00;;;;;;4174560;28;20115;-60
2021/12/10 01:09:38;;;;;;;;;;;2.90;5.00;;;;;;4177006;28;20339;-58
2021/12/10 01:11:43;;;;;;;;;;;2.90;5.10;;;;;;4173490;28;20043;-57
2021/12/10 01:13:51;;;;;;;;;;;2.90;5.80;;;;;;4175026;28;19989;-60
2021/12/10 01:27:37;;;;;;;;;;;2.80;4.50;;;;;;4178750;28;19981;-58
2021/12/10 01:29:44;;;;;;;;;;;2.80;4.70;;;;;;4178327;28;19973;-56
2021/12/10 01:31:46;;;;;;;;;;;2.80;4.30;;;;;;4177272;28;20478;-58
2021/12/10 01:33:50;;;;;;;;;;;2.80;4.40;;;;;;4172975;28;19993;-58
2021/12/10 01:35:54;;;;;;;;;;;2.70;4.50;;;;;;4176590;28;20463;-59
2021/12/10 01:37:57;;;;;;;;;;;2.70;4.90;;;;;;4173253;28;20019;-59
2021/12/10 01:40:00;;;;;;;;;;;2.70;5.20;;;;;;4178769;28;19973;-57
2021/12/10 01:42:16;;;;;;;;;;;2.70;4.60;;;;;;4193689;28;20342;-56
2021/12/10 01:44:26;;;;;;;;;;;2.60;4.40;;;;;;4192325;28;19992;-58
2021/12/10 01:46:30;;;;;;;;;;;2.60;4.50;;;;;;4174041;28;20050;-57
2021/12/10 01:48:39;;;;;;;;;;;2.60;4.60;;;;;;4175095;28;19992;-58
2021/12/10 01:50:42;;;;;;;;;;;2.60;5.40;;;;;;4173582;28;19976;-57
2021/12/10 01:52:48;;;;;;;;;;;2.60;5.40;;;;;;4174944;28;20029;-57
2021/12/10 01:54:52;;;;;;;;;;;2.60;6.10;;;;;;4175745;28;20342;-59
2021/12/10 01:56:57;;;;;;;;;;;2.60;6.70;;;;;;4175549;28;20023;-59
2021/12/10 01:58:59;;;;;;;;;;;2.60;7.00;;;;;;4174087;28;20024;-60
2021/12/10 02:01:04;;;;;;;;;;;2.50;6.20;;;;;;4168778;28;20429;-57
2021/12/10 02:03:06;;;;;;;;;;;2.50;6.60;;;;;;4173829;28;20005;-59
2021/12/10 02:05:08;;;;;;;;;;;2.50;7.60;;;;;;4174256;28;20267;-59
2021/12/10 02:07:12;;;;;;;;;;;2.50;7.70;;;;;;4205859;28;19993;-57
2021/12/10 02:09:15;;;;;;;;;;;2.50;8.10;;;;;;4179110;28;20474;-61
2021/12/10 02:11:17;;;;;;;;;;;2.50;9.00;;;;;;4174452;28;20354;-59
2021/12/10 02:13:19;;;;;;;;;;;2.50;8.60;;;;;;4174939;28;20458;-61
2021/12/10 02:15:25;;;;;;;;;;;2.40;8.80;;;;;;4176509;28;19981;-58
2021/12/10 02:17:29;;;;;;;;;;;2.40;8.10;;;;;;4170157;28;19977;-62
2021/12/10 02:19:31;;;;;;;;;;;2.40;8.60;;;;;;4177907;28;20057;-57
2021/12/10 02:21:34;;;;;;;;;;;2.30;8.50;;;;;;4209826;28;20056;-58
2021/12/10 02:23:37;;;;;;;;;;;2.30;8.20;;;;;;4176984;28;20031;-57
2021/12/10 02:25:39;;;;;;;;;;;2.20;8.00;;;;;;4179853;28;19973;-58
2021/12/10 02:27:41;;;;;;;;;;;2.20;8.10;;;;;;4175397;28;20466;-61
2021/12/10 02:29:43;;;;;;;;;;;2.20;8.20;;;;;;4175796;28;20778;-59
2021/12/10 02:31:45;;;;;;;;;;;2.10;8.80;;;;;;4176475;28;20048;-58
2021/12/10 02:33:47;;;;;;;;;;;2.20;9.70;;;;;;4180242;28;20501;-60
2021/12/10 02:35:49;;;;;;;;;;;2.20;9.80;;;;;;4173169;28;20581;-60
2021/12/10 02:37:50;;;;;;;;;;;2.10;9.90;;;;;;4176334;28;19982;-59
2021/12/10 02:39:52;;;;;;;;;;;2.10;10.40;;;;;;4174999;28;20025;-60
2021/12/10 02:41:54;;;;;;;;;;;2.10;10.60;;;;;;4176608;28;20035;-61
2021/12/10 02:43:57;;;;;;;;;;;2.10;11.10;;;;;;4173139;28;20345;-57
2021/12/10 02:46:00;;;;;;;;;;;2.00;10.80;;;;;;4174136;28;20455;-58
2021/12/10 02:48:02;;;;;;;;;;;2.00;10.20;;;;;;4175445;28;20393;-58
2021/12/10 02:50:05;;;;;;;;;;;1.90;9.60;;;;;;4173040;28;19992;-60
2021/12/10 02:52:09;;;;;;;;;;;1.90;10.00;;;;;;4169885;28;20549;-58
2021/12/10 02:54:14;;;;;;;;;;;1.90;9.60;;;;;;4174821;28;19997;-60
2021/12/10 02:56:19;;;;;;;;;;;1.80;9.90;;;;;;4176297;28;20064;-57
2021/12/10 02:58:21;;;;;;;;;;;1.80;9.80;;;;;;4178197;28;19984;-62
2021/12/10 03:00:25;;;;;;;;;;;1.80;8.80;;;;;;4175273;28;20032;-58
2021/12/10 03:02:28;;;;;;;;;;;1.70;9.20;;;;;;4176342;28;19977;-61
2021/12/10 03:04:31;;;;;;;;;;;1.70;9.40;;;;;;4176836;28;20455;-60
2021/12/10 03:06:34;;;;;;;;;;;1.70;9.60;;;;;;4175119;28;19977;-59
2021/12/10 03:08:37;;;;;;;;;;;1.70;8.70;;;;;;4176025;28;20478;-61
2021/12/10 03:10:39;;;;;;;;;;;1.60;8.30;;;;;;4174610;28;19996;-58
2021/12/10 03:12:41;;;;;;;;;;;1.60;8.80;;;;;;4173839;28;20043;-59
2021/12/10 03:14:45;;;;;;;;;;;1.60;8.40;;;;;;4174578;28;20437;-58
2021/12/10 03:16:48;;;;;;;;;;;1.60;9.00;;;;;;4174750;28;20000;-58
2021/12/10 03:18:50;;;;;;;;;;;1.60;9.00;;;;;;4175567;28;19974;-60
2021/12/10 03:20:52;;;;;;;;;;;1.50;8.40;;;;;;4176264;28;20020;-59
2021/12/10 03:22:54;;;;;;;;;;;1.50;9.40;;;;;;4171307;28;20080;-58
2021/12/10 03:24:58;;;;;;;;;;;1.50;8.80;;;;;;4175921;28;19989;-56
2021/12/10 03:27:03;;;;;;;;;;;1.50;8.90;;;;;;4173223;28;20024;-57
2021/12/10 03:29:05;;;;;;;;;;;1.50;9.00;;;;;;4174552;28;20024;-57
2021/12/10 03:31:08;;;;;;;;;;;1.50;8.90;;;;;;4175548;28;19978;-60
2021/12/10 03:33:10;;;;;;;;;;;1.40;8.80;;;;;;4175083;28;20060;-58
2021/12/10 03:35:15;;;;;;;;;;;1.40;8.60;;;;;;4177520;28;19977;-58
2021/12/10 03:37:18;;;;;;;;;;;1.40;8.20;;;;;;4173900;28;19996;-57
2021/12/10 03:39:22;;;;;;;;;;;1.40;8.10;;;;;;4187252;28;19980;-56
2021/12/10 03:41:24;;;;;;;;;;;1.40;8.40;;;;;;4172028;28;20006;-58
2021/12/10 03:43:26;;;;;;;;;;;1.40;8.80;;;;;;4175942;28;20098;-59
2021/12/10 03:45:31;;;;;;;;;;;1.30;8.70;;;;;;4177292;28;19981;-58
2021/12/10 03:47:33;;;;;;;;;;;1.30;8.70;;;;;;4174152;28;19981;-55
2021/12/10 03:49:35;;;;;;;;;;;1.30;9.10;;;;;;4174102;28;20020;-55
2021/12/10 03:51:37;;;;;;;;;;;1.30;9.00;;;;;;4174794;28;19977;-55
2021/12/10 03:53:39;;;;;;;;;;;1.20;10.70;;;;;;4175790;28;20501;-55
2021/12/10 03:55:41;;;;;;;;;;;1.20;10.40;;;;;;4175826;28;19973;-57
2021/12/10 03:57:43;;;;;;;;;;;1.20;11.60;;;;;;4176784;28;19977;-60
2021/12/10 03:59:45;;;;;;;;;;;1.20;11.60;;;;;;4177127;28;20105;-59
2021/12/10 04:02:00;;;;;;;;;;;1.20;12.00;;;;;;4175630;28;20462;-55
2021/12/10 04:04:03;;;;;;;;;;;1.20;12.00;;;;;;4174131;28;20001;-55
2021/12/10 04:06:08;;;;;;;;;;;1.20;12.30;;;;;;4176184;28;20031;-59
2021/12/10 04:08:10;;;;;;;;;;;1.20;12.00;;;;;;4206483;28;20010;-57
2021/12/10 04:10:13;;;;;;;;;;;1.20;12.00;;;;;;4171205;28;19981;-57
2021/12/10 04:12:15;;;;;;;;;;;1.20;11.90;;;;;;4169515;28;20051;-56
2021/12/10 04:14:18;;;;;;;;;;;1.20;11.00;;;;;;4172137;28;20058;-57
2021/12/10 04:16:21;;;;;;;;;;;1.20;10.60;;;;;;4171648;28;20331;-58
2021/12/10 04:18:22;;;;;;;;;;;1.20;10.30;;;;;;4171903;28;20474;-57
2021/12/10 04:20:26;;;;;;;;;;;1.20;9.70;;;;;;4175081;28;19981;-55
2021/12/10 04:22:32;;;;;;;;;;;1.20;10.00;;;;;;4173638;28;20045;-55
2021/12/10 04:24:35;;;;;;;;;;;1.10;9.80;;;;;;4204902;28;20477;-56
2021/12/10 04:26:37;;;;;;;;;;;1.20;9.30;;;;;;4171422;28;20423;-57
2021/12/10 04:28:39;;;;;;;;;;;1.20;9.00;;;;;;4173973;28;19981;-56
2021/12/10 04:30:42;;;;;;;;;;;1.20;7.70;;;;;;4175083;28;20417;-61
2021/12/10 04:32:45;;;;;;;;;;;1.10;7.10;;;;;;4171412;28;20442;-60
2021/12/10 04:34:47;;;;;;;;;;;1.10;7.40;;;;;;4174846;28;19977;-57
2021/12/10 04:36:50;;;;;;;;;;;1.10;8.00;;;;;;4175308;28;20083;-58
2021/12/10 04:38:52;;;;;;;;;;;1.10;7.50;;;;;;4176069;28;19984;-55
2021/12/10 04:40:56;;;;;;;;;;;1.10;7.90;;;;;;4175459;28;20013;-56
2021/12/10 04:42:58;;;;;;;;;;;1.20;7.60;;;;;;4170117;28;20076;-55
2021/12/10 04:45:00;;;;;;;;;;;1.20;8.20;;;;;;4175008;28;20442;-56
2021/12/10 04:47:02;;;;;;;;;;;1.20;8.50;;;;;;4175487;28;19984;-55
2021/12/10 04:49:06;;;;;;;;;;;1.20;8.70;;;;;;4173335;28;20472;-56
2021/12/10 04:51:07;;;;;;;;;;;1.20;8.60;;;;;;4178150;28;20046;-60
2021/12/10 04:53:10;;;;;;;;;;;1.20;9.10;;;;;;4178243;28;20012;-58
2021/12/10 04:55:12;;;;;;;;;;;1.10;8.70;;;;;;4179111;28;20035;-59
2021/12/10 04:57:15;;;;;;;;;;;1.10;9.00;;;;;;4177351;28;19973;-57
2021/12/10 04:59:18;;;;;;;;;;;1.10;8.60;;;;;;4175100;28;19979;-55
2021/12/10 05:01:20;;;;;;;;;;;1.10;8.50;;;;;;4175094;28;20010;-58
2021/12/10 05:03:22;;;;;;;;;;;1.10;7.90;;;;;;4180087;28;20084;-59
2021/12/10 05:05:24;;;;;;;;;;;1.10;8.50;;;;;;4176496;28;19980;-60
2021/12/10 05:07:30;;;;;;;;;;;1.10;8.00;;;;;;4180613;28;19981;-55
2021/12/10 05:09:32;;;;;;;;;;;1.10;8.00;;;;;;4177632;28;20373;-55
2021/12/10 05:11:34;;;;;;;;;;;1.00;7.90;;;;;;4178753;28;19995;-55
2021/12/10 05:13:37;;;;;;;;;;;1.00;7.60;;;;;;4169189;28;20489;-57
2021/12/10 05:15:39;;;;;;;;;;;1.00;6.70;;;;;;4158131;28;19977;-55
2021/12/10 05:17:41;;;;;;;;;;;0.90;6.70;;;;;;4157640;28;20006;-57
2021/12/10 05:19:44;;;;;;;;;;;0.90;6.30;;;;;;4159696;28;20363;-58
2021/12/10 05:21:46;;;;;;;;;;;0.90;6.70;;;;;;4159391;28;19978;-57
2021/12/10 05:23:48;;;;;;;;;;;0.80;6.70;;;;;;4162507;28;19990;-58
2021/12/10 05:25:51;;;;;;;;;;;0.80;6.80;;;;;;4162082;28;19984;-58
2021/12/10 05:27:53;;;;;;;;;;;0.80;6.60;;;;;;4171414;28;20024;-55
2021/12/10 05:29:55;;;;;;;;;;;0.80;6.60;;;;;;4157669;28;20474;-56
2021/12/10 05:31:59;;;;;;;;;;;0.80;6.60;;;;;;4162419;28;19973;-56
2021/12/10 05:34:01;;;;;;;;;;;0.80;7.00;;;;;;4158262;28;19997;-56
2021/12/10 05:36:03;;;;;;;;;;;0.70;6.90;;;;;;4192242;28;19977;-56
2021/12/10 05:38:05;;;;;;;;;;;0.70;6.90;;;;;;4171728;28;20024;-55
2021/12/10 05:40:10;;;;;;;;;;;0.70;7.20;;;;;;4170355;28;20035;-54
2021/12/10 05:42:12;;;;;;;;;;;0.70;6.30;;;;;;4157753;28;20490;-58
2021/12/10 05:44:14;;;;;;;;;;;0.70;7.00;;;;;;4160661;28;20035;-55
2021/12/10 05:46:17;;;;;;;;;;;0.70;6.80;;;;;;4172917;28;20072;-54
2021/12/10 05:48:20;;;;;;;;;;;0.70;6.90;;;;;;4160155;28;19985;-56
2021/12/10 05:50:23;;;;;;;;;;;0.70;7.10;;;;;;4157688;28;19973;-55
2021/12/10 05:52:24;;;;;;;;;;;0.70;7.70;;;;;;4156967;28;20029;-56
2021/12/10 05:54:26;;;;;;;;;;;0.70;7.00;;;;;;4157508;28;19994;-55
2021/12/10 05:56:28;;;;;;;;;;;0.70;7.00;;;;;;4156984;28;19981;-54
2021/12/10 05:58:30;;;;;;;;;;;0.70;6.50;;;;;;4161287;28;19982;-58
2021/12/10 06:00:34;;;;;;;;;;;0.70;6.60;;;;;;4157534;28;19977;-56
2021/12/10 06:02:36;;;;;;;;;;;0.70;6.90;;;;;;4156094;28;20269;-58
2021/12/10 06:04:38;;;;;;;;;;;0.70;7.00;;;;;;4159061;28;19994;-57
2021/12/10 06:06:40;;;;;;;;;;;0.70;6.70;;;;;;4159583;28;19974;-57
2021/12/10 06:08:42;;;;;;;;;;;0.70;7.10;;;;;;4170402;28;20122;-54
2021/12/10 06:10:45;;;;;;;;;;;0.70;7.40;;;;;;4158541;28;20398;-55
2021/12/10 06:12:47;;;;;;;;;;;0.70;7.10;;;;;;4171307;28;20366;-59
2021/12/10 06:14:49;;;;;;;;;;;0.70;7.30;;;;;;4173112;28;19973;-59
2021/12/10 06:16:54;;;;;;;;;;;0.70;6.70;;;;;;4159560;28;20013;-55
2021/12/10 06:18:56;;;;;;;;;;;0.70;7.40;;;;;;4162095;28;19982;-54
2021/12/10 06:20:58;;;;;;;;;;;0.70;6.60;;;;;;4160335;28;19989;-55
2021/12/10 06:23:00;;;;;;;;;;;0.70;6.60;;;;;;4154859;28;20542;-54
2021/12/10 06:25:03;;;;;;;;;;;0.70;6.90;;;;;;4157535;28;20016;-55
2021/12/10 06:27:05;;;;;;;;;;;0.70;7.50;;;;;;4174317;28;19989;-56
2021/12/10 06:29:07;;;;;;;;;;;0.70;6.80;;;;;;4161249;28;19978;-57
2021/12/10 06:31:09;;;;;;;;;;;0.70;6.90;;;;;;4161121;28;19981;-56
2021/12/10 06:33:13;;;;;;;;;;;0.60;6.60;;;;;;4157781;28;20002;-54
2021/12/10 06:35:16;;;;;;;;;;;0.70;7.10;;;;;;4172544;28;19985;-57
2021/12/10 06:37:18;;;;;;;;;;;0.70;6.70;;;;;;4155136;28;20032;-57
2021/12/10 06:39:20;;;;;;;;;;;0.60;6.40;;;;;;4161406;28;20049;-57
2021/12/10 06:41:22;;;;;;;;;;;0.60;6.60;;;;;;4192173;28;19972;-57
2021/12/10 06:43:24;;;;;;;;;;;0.60;6.90;;;;;;4173455;28;19989;-56
2021/12/10 06:45:27;;;;;;;;;;;0.60;7.60;;;;;;4158070;28;20024;-58
2021/12/10 06:47:29;;;;;;;;;;;0.60;7.80;;;;;;4171303;28;19981;-57
2021/12/10 06:49:32;;;;;;;;;;;0.60;7.60;;;;;;4160124;28;20039;-56
2021/12/10 06:51:34;;;;;;;;;;;0.60;7.60;;;;;;4156502;28;19974;-56
2021/12/10 06:53:36;;;;;;;;;;;0.60;7.60;;;;;;4159766;28;20000;-55
2021/12/10 06:55:38;;;;;;;;;;;0.60;7.20;;;;;;4173219;28;19981;-54
2021/12/10 06:57:40;;;;;;;;;;;0.60;7.20;;;;;;4159224;28;20023;-55
2021/12/10 06:59:41;;;;;;;;;;;0.60;7.70;;;;;;4155659;28;20009;-54
2021/12/10 07:01:43;;;;;;;;;;;0.60;7.50;;;;;;4189377;28;20019;-56
2021/12/10 07:03:46;;;;;;;;;;;0.60;7.40;;;;;;4186432;28;20000;-59
2021/12/10 07:05:48;;;;;;;;;;;0.60;7.50;;;;;;4191214;28;20030;-56
2021/12/10 07:07:50;;;;;;;;;;;0.60;7.30;;;;;;4159628;28;20013;-55
2021/12/10 07:09:52;;;;;;;;;;;0.60;7.80;;;;;;4158331;28;20411;-55
2021/12/10 07:11:54;;;;;;;;;;;0.60;7.80;;;;;;4158494;28;19997;-56
2021/12/10 07:13:57;;;;;;;;;;;0.60;7.80;;;;;;4155487;28;20672;-55
2021/12/10 07:15:59;;;;;;;;;;;0.60;7.70;;;;;;4173096;28;20020;-54
2021/12/10 07:18:02;;;;;;;;;;;0.60;7.80;;;;;;4160034;28;20439;-54
2021/12/10 07:20:04;;;;;;;;;;;0.50;7.90;;;;;;4173612;28;20028;-55
2021/12/10 07:22:06;;;;;;;;;;;0.50;7.10;;;;;;4171219;28;19981;-55
2021/12/10 07:24:10;;;;;;;;;;;0.50;7.00;;;;;;4159757;28;20084;-57
2021/12/10 07:26:12;;;;;;;;;;;0.50;7.30;;;;;;4155332;28;20025;-57
2021/12/10 07:28:15;;;;;;;;;;;0.50;7.00;;;;;;4153543;28;19974;-56
2021/12/10 07:30:19;;;;;;;;;;;0.50;6.90;;;;;;4157035;28;19977;-58
2021/12/10 07:32:21;;;;;;;;;;;0.50;6.80;;;;;;4152644;28;19978;-56
2021/12/10 07:34:23;;;;;;;;;;;0.50;7.80;;;;;;4169842;28;20550;-58
2021/12/10 07:36:25;;;;;;;;;;;0.50;7.40;;;;;;4168798;28;20080;-57
2021/12/10 07:38:27;;;;;;;;;;;0.50;7.00;;;;;;4156615;28;20609;-58
2021/12/10 07:40:30;;;;;;;;;;;0.50;7.20;;;;;;4186201;28;20028;-56
2021/12/10 07:42:32;;;;;;;;;;;0.50;7.40;;;;;;4152838;28;20013;-54
2021/12/10 07:44:34;;;;;;;;;;;0.50;7.70;;;;;;4158425;28;19989;-55
2021/12/10 07:46:37;;;;;;;;;;;0.50;7.50;;;;;;4158955;28;20020;-56
2021/12/10 07:48:40;;;;;;;;;;;0.60;7.40;;;;;;4158500;28;19988;-56
2021/12/10 07:50:52;;;;;;;;;;;0.60;7.20;;;;;;4171040;28;20358;-54
2021/12/10 07:52:56;;;;;;;;;;;0.60;7.70;;;;;;4157044;28;19973;-58
2021/12/10 07:54:57;;;;;;;;;;;0.60;7.50;;;;;;4158773;28;19977;-58
2021/12/10 07:56:59;;;;;;;;;;;0.60;7.40;;;;;;4157542;28;20428;-56
2021/12/10 07:59:01;;;;;;;;;;;0.70;7.40;;;;;;4188095;28;20127;-55
2021/12/10 08:01:06;;;;;;;;;;;0.70;7.30;;;;;;4154304;28;20017;-57
2021/12/10 08:03:08;;;;;;;;;;;0.70;7.10;;;;;;4185007;28;19997;-56
2021/12/10 08:05:11;;;;;;;;;;;0.70;7.30;;;;;;4156744;28;20386;-55
2021/12/10 08:07:13;;;;;;;;;;;0.70;7.30;;;;;;4154115;28;20355;-56
2021/12/10 08:09:15;;;;;;;;;;;0.80;7.40;;;;;;4155444;28;19974;-59
2021/12/10 08:11:17;;;;;;;;;;;0.80;6.90;;;;;;4156095;28;20023;-56
2021/12/10 08:13:22;;;;;;;;;;;0.80;6.70;;;;;;4160125;28;20057;-57
2021/12/10 08:15:24;;;;;;;;;;;0.80;6.80;;;;;;4154975;28;19978;-57
2021/12/10 08:17:27;;;;;;;;;;;0.80;7.10;;;;;;4155175;28;19985;-56
2021/12/10 08:19:29;;;;;;;;;;;0.70;7.10;;;;;;4155261;28;20040;-59
2021/12/10 08:21:30;;;;;;;;;;;0.70;6.80;;;;;;4157596;28;20021;-57
2021/12/10 08:23:33;;;;;;;;;;;0.70;7.30;;;;;;4153840;28;20479;-57
2021/12/10 08:25:36;;;;;;;;;;;0.70;7.10;;;;;;4171555;28;20035;-56
2021/12/10 08:27:38;;;;;;;;;;;0.80;8.00;;;;;;4169016;28;20106;-58
2021/12/10 08:29:42;;;;;;;;;;;0.80;7.90;;;;;;4163323;28;19973;-56
2021/12/10 08:31:44;;;;;;;;;;;0.90;8.40;;;;;;4163756;28;19988;-58
2021/12/10 08:33:48;;;;;;;;;;;0.90;8.60;;;;;;4156879;28;20092;-56
2021/12/10 08:35:54;;;;;;;;;;;1.00;8.90;;;;;;4164554;28;20075;-57
2021/12/10 08:37:58;;;;;;;;;;;1.10;9.10;;;;;;4163930;28;20017;-59
2021/12/10 08:40:00;;;;;;;;;;;1.10;9.10;;;;;;4155105;28;20117;-61
2021/12/10 08:42:02;;;;;;;;;;;1.20;8.90;;;;;;4159387;28;20012;-58
2021/12/10 08:44:05;;;;;;;;;;;1.20;9.20;;;;;;4162096;28;20024;-57
2021/12/10 08:46:09;;;;;;;;;;;1.30;9.10;;;;;;4186641;28;19981;-59
2021/12/10 08:48:11;;;;;;;;;;;1.20;8.90;;;;;;4162583;28;19982;-60
2021/12/10 08:50:16;;;;;;;;;;;1.30;8.60;;;;;;4157756;28;19977;-59
2021/12/10 08:52:19;;;;;;;;;;;1.30;5.60;;;;;;4159438;28;19978;-57
2021/12/10 08:54:23;;;;;;;;;;;1.30;1.00;;;;;;4191781;28;19997;-58
2021/12/10 08:56:25;;;;;;;;;;;1.30;1.00;;;;;;4175233;28;20004;-58
2021/12/10 08:58:28;;;;;;;;;;;1.30;1.00;;;;;;4155751;28;20084;-58
2021/12/10 09:00:31;;;;;;;;;;;1.30;1.00;;;;;;4161803;28;20032;-58
2021/12/10 09:02:34;;;;;;;;;;;1.30;1.00;;;;;;4163633;28;20064;-58
2021/12/10 09:04:40;;;;;;;;;;;1.30;1.00;;;;;;4158661;28;19998;-58
2021/12/10 09:06:44;;;;;;;;;;;1.30;1.00;;;;;;4190020;28;20032;-59
2021/12/10 09:08:46;;;;;;;;;;;1.30;1.00;;;;;;4155461;28;19988;-59
2021/12/10 09:10:50;;;;;;;;;;;1.30;1.00;;;;;;4171526;28;19985;-57
2021/12/10 09:12:53;;;;;;;;;;;1.30;1.00;;;;;;4170914;28;20076;-58
2021/12/10 09:14:59;;;;;;;;;;;1.30;1.00;;;;;;4172458;28;19989;-61
2021/12/10 09:17:03;;;;;;;;;;;1.30;1.00;;;;;;4157658;28;20013;-59
2021/12/10 09:19:10;;;;;;;;;;;1.30;1.00;;;;;;4154655;28;19982;-60
2021/12/10 09:21:12;;;;;;;;;;;1.40;1.00;;;;;;4160153;28;20354;-60
2021/12/10 09:23:17;;;;;;;;;;;1.40;1.00;;;;;;4162738;28;20458;-58
2021/12/10 09:25:19;;;;;;;;;;;1.40;1.00;;;;;;4187175;28;20013;-57
2021/12/10 09:27:21;;;;;;;;;;;1.40;1.00;;;;;;4171680;28;19978;-59
2021/12/10 09:29:24;;;;;;;;;;;1.40;1.00;;;;;;4171345;28;20474;-59
2021/12/10 09:31:26;;;;;;;;;;;1.50;1.00;;;;;;4173869;28;20433;-57
2021/12/10 09:33:29;;;;;;;;;;;1.40;1.00;;;;;;4157664;28;20514;-57
2021/12/10 09:35:32;;;;;;;;;;;1.50;1.00;;;;;;4156369;28;20012;-59
2021/12/10 09:37:36;;;;;;;;;;;1.50;1.00;;;;;;4171618;28;20025;-57
2021/12/10 09:39:38;;;;;;;;;;;1.50;1.00;;;;;;4154439;28;20021;-60
2021/12/10 09:41:40;;;;;;;;;;;1.60;1.00;;;;;;4189089;28;19983;-59
2021/12/10 09:43:42;;;;;;;;;;;1.50;1.00;;;;;;4172669;28;20094;-60
2021/12/10 09:45:44;;;;;;;;;;;1.50;1.00;;;;;;4171159;28;20430;-59
2021/12/10 09:47:47;;;;;;;;;;;1.60;1.00;;;;;;4150402;28;20031;-60
2021/12/10 09:49:51;;;;;;;;;;;1.60;1.00;;;;;;4158516;28;19973;-60
2021/12/10 09:52:02;;;;;;;;;;;1.60;1.00;;;;;;4192724;28;20397;-58
2021/12/10 09:54:10;;;;;;;;;;;1.60;1.00;;;;;;4175330;28;20063;-57
2021/12/10 09:56:14;;;;;;;;;;;1.70;1.00;;;;;;4157338;28;20017;-60
2021/12/10 09:58:16;;;;;;;;;;;1.70;1.00;;;;;;4154810;28;20068;-61
2021/12/10 10:00:27;;;;;;;;;;;1.70;1.00;;;;;;4159161;28;19989;-59
2021/12/10 10:02:29;;;;;;;;;;;1.70;1.00;;;;;;4159682;28;20017;-58
2021/12/10 10:04:35;;;;;;;;;;;1.80;1.00;;;;;;4161490;28;20060;-61
2021/12/10 10:06:39;;;;;;;;;;;1.80;1.00;;;;;;4157419;28;20367;-58
2021/12/10 10:08:42;;;;;;;;;;;1.80;1.00;;;;;;4158922;28;20625;-59
2021/12/10 10:10:48;;;;;;;;;;;1.70;1.00;;;;;;4156982;28;19977;-58
2021/12/10 10:12:51;;;;;;;;;;;1.70;1.00;;;;;;4158944;28;20021;-59
2021/12/10 10:14:53;;;;;;;;;;;1.70;1.00;;;;;;4159409;28;20427;-57
2021/12/10 10:17:16;;;;;;;;;;;1.70;1.00;;;;;;4154301;28;20425;-60
2021/12/10 10:19:18;;;;;;;;;;;1.70;1.00;;;;;;4161259;28;20501;-59
2021/12/10 10:21:25;;;;;;;;;;;1.70;1.00;;;;;;4161488;28;19985;-58
2021/12/10 10:23:28;;;;;;;;;;;1.70;1.00;;;;;;4158909;28;19998;-57
2021/12/10 10:25:30;;;;;;;;;;;1.60;1.00;;;;;;4160339;28;20052;-58
2021/12/10 10:27:33;;;;;;;;;;;1.50;1.00;;;;;;4171288;28;19979;-62
2021/12/10 10:29:47;;;;;;;;;;;1.50;1.00;;;;;;4162545;28;20028;-60
2021/12/10 10:31:53;;;;;;;;;;;1.50;1.00;;;;;;4159253;28;20039;-58
2021/12/10 10:33:55;;;;;;;;;;;1.50;1.00;;;;;;4161362;28;20475;-59
2021/12/10 10:35:59;;;;;;;;;;;1.50;1.00;;;;;;4154260;28;20097;-59
2021/12/10 10:38:02;;;;;;;;;;;1.50;1.00;;;;;;4154006;28;19977;-60
2021/12/10 10:40:05;;;;;;;;;;;1.40;1.00;;;;;;4156580;28;19977;-58
2021/12/10 10:42:11;;;;;;;;;;;1.40;1.00;;;;;;4171428;28;20493;-61
2021/12/10 10:44:28;;;;;;;;;;;1.40;1.00;;;;;;4157260;28;20144;-57
2021/12/10 10:46:31;;;;;;;;;;;1.40;1.00;;;;;;4156708;28;20029;-61
2021/12/10 10:48:33;;;;;;;;;;;1.40;1.00;;;;;;4187193;28;19981;-58
2021/12/10 10:50:37;;;;;;;;;;;1.40;1.00;;;;;;4161643;28;19973;-61
2021/12/10 10:52:41;;;;;;;;;;;1.40;1.00;;;;;;4161465;28;20344;-62
2021/12/10 10:54:43;;;;;;;;;;;1.40;1.00;;;;;;4159926;28;20025;-61
2021/12/10 10:56:46;;;;;;;;;;;1.40;1.00;;;;;;4159921;28;19977;-59
2021/12/10 10:58:54;;;;;;;;;;;1.50;1.00;;;;;;4161251;28;19981;-59
2021/12/10 11:01:09;;;;;;;;;;;1.50;1.00;;;;;;4169332;28;20072;-59
2021/12/10 11:03:36;;;;;;;;;;;1.50;1.00;;;;;;4157466;28;20457;-60
2021/12/10 11:05:51;;;;;;;;;;;1.50;1.00;;;;;;4160341;28;19974;-63
2021/12/10 11:07:56;;;;;;;;;;;1.40;1.00;;;;;;4170652;28;19992;-62
2021/12/10 11:10:05;;;;;;;;;;;1.40;1.00;;;;;;4173608;28;20423;-60
2021/12/10 11:12:08;;;;;;;;;;;1.40;1.00;;;;;;4169880;28;19981;-62
2021/12/10 11:14:16;;;;;;;;;;;1.40;1.00;;;;;;4156744;28;19997;-62
2021/12/10 11:16:20;;;;;;;;;;;1.40;1.60;;;;;;4155569;28;19977;-61
2021/12/10 11:18:22;;;;;;;;;;;1.40;3.10;;;;;;4188431;28;19973;-63
2021/12/10 11:20:31;;;;;;;;;;;1.40;5.40;;;;;;4159801;28;19982;-61
2021/12/10 11:22:33;;;;;;;;;;;1.40;7.90;;;;;;4157025;28;19977;-57
2021/12/10 11:24:37;;;;;;;;;;;1.30;10.30;;;;;;4162179;28;20001;-58
2021/12/10 11:26:44;;;;;;;;;;;1.30;12.10;;;;;;4169258;28;19980;-59
2021/12/10 11:28:46;;;;;;;;;;;1.30;14.00;;;;;;4170245;28;19981;-57
2021/12/10 11:30:50;;;;;;;;;;;1.30;16.20;;;;;;4160935;28;19989;-59
2021/12/10 11:33:00;;;;;;;;;;;1.30;17.30;;;;;;4155071;28;19974;-59
2021/12/10 11:35:12;;;;;;;;;;;1.30;19.70;;;;;;4154766;28;20031;-56
2021/12/10 11:37:14;;;;;;;;;;;1.30;20.30;;;;;;4153922;28;20395;-57
2021/12/10 11:39:16;;;;;;;;;;;1.30;21.40;;;;;;4168474;28;20020;-55
2021/12/10 11:41:22;;;;;;;;;;;1.40;22.20;;;;;;4171773;28;20028;-61
2021/12/10 11:45:45;;;;;;;;;;;1.40;21.70;;;;;;4158875;28;19982;-61
2021/12/10 11:47:52;;;;;;;;;;;1.40;22.20;;;;;;4159863;28;20079;-54
2021/12/10 11:49:53;;;;;;;;;;;1.40;22.30;;;;;;4159046;28;20439;-58
2021/12/10 11:52:05;;;;;;;;;;;1.50;23.10;;;;;;4172199;28;19978;-56
2021/12/10 11:54:19;;;;;;;;;;;1.50;23.30;;;;;;4167706;28;20445;-57
2021/12/10 11:56:20;;;;;;;;;;;1.50;22.70;;;;;;4167834;28;19981;-59
2021/12/10 11:58:23;;;;;;;;;;;1.60;22.90;;;;;;4154399;28;20028;-57
2021/12/10 12:00:29;;;;;;;;;;;1.60;22.40;;;;;;4153760;28;19978;-59
2021/12/10 12:02:34;;;;;;;;;;;1.60;22.40;;;;;;4156255;28;19981;-54
2021/12/10 12:04:47;;;;;;;;;;;1.60;22.50;;;;;;4156260;28;20024;-57
2021/12/10 12:07:07;;;;;;;;;;;1.60;22.70;;;;;;4155550;28;20003;-58
2021/12/10 12:09:28;;;;;;;;;;;1.70;22.80;;;;;;4155265;28;20342;-55
2021/12/10 12:11:31;;;;;;;;;;;1.70;23.00;;;;;;4155349;28;20443;-58
2021/12/10 12:13:37;;;;;;;;;;;1.70;22.90;;;;;;4174000;28;19989;-57
2021/12/10 12:16:02;;;;;;;;;;;1.80;22.90;;;;;;4156499;28;20486;-57
2021/12/10 12:18:15;;;;;;;;;;;1.80;22.60;;;;;;4166487;28;19974;-56
2021/12/10 12:20:25;;;;;;;;;;;1.80;22.70;;;;;;4166938;28;19973;-56
2021/12/10 12:27:08;;;;;;;;;;;1.80;20.60;;;;;;4158061;28;20262;-57
2021/12/10 12:29:34;;;;;;;;;;;1.80;20.80;;;;;;4154865;28;20045;-56
2021/12/10 12:31:40;;;;;;;;;;;1.90;21.30;;;;;;4157698;28;20036;-59
2021/12/10 12:33:58;;;;;;;;;;;1.90;20.50;;;;;;4157256;28;19998;-57
2021/12/10 12:36:00;;;;;;;;;;;1.90;19.40;;;;;;4171978;28;19997;-57
2021/12/10 12:38:09;;;;;;;;;;;1.90;20.00;;;;;;4156595;28;20020;-57
2021/12/10 12:40:31;;;;;;;;;;;1.90;19.40;;;;;;4158668;28;19974;-59